createdAt,value
2023-01-25T00:02:10.909Z,23.85
2023-01-25T00:04:40.342Z,27.38
2023-01-25T00:07:10.102Z,31.58
2023-01-25T00:09:40.995Z,29.17
2023-01-25T00:12:10.681Z,23.00
2023-01-25T00:14:40.297Z,28.98
2023-01-25T00:17:10.199Z,28.17
2023-01-25T00:19:39.486Z,26.33
2023-01-25T00:22:09.115Z,25.05
2023-01-25T00:24:38.557Z,30.75
2023-01-25T00:27:09.606Z,27.13
2023-01-25T00:29:38.870Z,27.75
2023-01-25T00:32:59.494Z,31.77
2023-01-25T00:35:33.224Z,24.92
2023-01-25T00:38:07.943Z,30.67
2023-01-25T00:40:37.686Z,27.90
2023-01-25T00:43:08.908Z,25.20
2023-01-25T00:45:38.339Z,28.30
2023-01-25T00:48:08.596Z,28.45
2023-01-25T00:50:39.495Z,28.98
2023-01-25T00:53:09.191Z,20.92
2023-01-25T00:55:38.502Z,27.02
2023-01-25T00:58:09.644Z,28.48
2023-01-25T01:00:38.912Z,27.35
2023-01-25T01:03:08.492Z,30.65
2023-01-25T01:05:38.318Z,29.77
2023-01-25T01:08:07.972Z,23.70
2023-01-25T01:10:37.235Z,26.05
2023-01-25T01:13:07.042Z,27.13
2023-01-25T01:15:39.679Z,29.58
2023-01-25T01:18:09.320Z,27.38
2023-01-25T01:20:50.643Z,29.33
2023-01-25T01:23:20.842Z,23.02
2023-01-25T01:25:51.053Z,23.13
2023-01-25T01:28:20.833Z,24.13
2023-01-25T01:30:52.283Z,31.27
2023-01-25T01:33:21.909Z,29.73
2023-01-25T01:35:51.182Z,26.58
2023-01-25T01:38:20.899Z,29.65
2023-01-25T01:40:51.302Z,31.02
2023-01-25T01:43:22.797Z,27.60
2023-01-25T01:45:59.202Z,30.35
2023-01-25T01:48:38.333Z,27.55
2023-01-25T01:51:18.667Z,32.38
2023-01-25T01:53:52.794Z,27.98
2023-01-25T01:56:27.807Z,28.75
2023-01-25T01:58:59.906Z,31.73
2023-01-25T02:01:30.822Z,28.88
2023-01-25T02:04:02.186Z,30.65
2023-01-25T02:09:06.189Z,27.98
2023-01-25T02:11:37.542Z,29.17
2023-01-25T02:14:08.262Z,27.55
2023-01-25T02:16:39.246Z,24.77
2023-01-25T02:19:10.977Z,26.13
2023-01-25T02:21:45.049Z,29.35
2023-01-25T02:24:18.848Z,30.65
2023-01-25T02:26:49.682Z,24.80
2023-01-25T02:29:20.543Z,26.17
2023-01-25T02:31:52.876Z,26.83
2023-01-25T02:34:22.854Z,32.17
2023-01-25T02:36:52.225Z,36.17
2023-01-25T02:39:24.359Z,29.77
2023-01-25T02:41:55.622Z,27.85
2023-01-25T02:44:28.205Z,25.65
2023-01-25T02:46:57.726Z,25.40
2023-01-25T02:49:28.065Z,25.80
2023-01-25T02:51:58.990Z,22.80
2023-01-25T02:54:28.751Z,26.50
2023-01-25T02:56:59.738Z,26.98
2023-01-25T02:59:29.563Z,28.63
2023-01-25T03:01:59.213Z,25.27
2023-01-25T03:04:28.981Z,27.60
2023-01-25T03:06:58.455Z,25.88
2023-01-25T03:09:28.217Z,32.70
2023-01-25T03:11:58.937Z,34.30
2023-01-25T03:16:57.614Z,33.22
2023-01-25T03:19:27.283Z,31.02
2023-01-25T03:21:56.547Z,27.48
2023-01-25T03:24:26.334Z,28.35
2023-01-25T03:27:14.577Z,34.05
2023-01-25T03:29:46.358Z,29.67
2023-01-25T03:32:15.727Z,27.38
2023-01-25T03:34:45.604Z,27.58
2023-01-25T03:37:14.969Z,28.67
2023-01-25T03:39:44.594Z,29.23
2023-01-25T03:42:14.062Z,24.00
2023-01-25T03:44:45.175Z,28.80
2023-01-25T03:49:44.946Z,27.55
2023-01-25T03:52:14.402Z,29.70
2023-01-25T03:54:44.230Z,29.55
2023-01-25T03:57:13.475Z,27.50
2023-01-25T03:59:50.608Z,21.13
2023-01-25T04:02:20.048Z,22.45
2023-01-25T04:04:49.888Z,26.15
2023-01-25T04:07:19.322Z,23.83
2023-01-25T04:09:50.482Z,24.10
2023-01-25T04:12:19.919Z,23.58
2023-01-25T04:14:51.007Z,24.70
2023-01-25T04:17:20.287Z,23.85
2023-01-25T04:19:50.185Z,24.90
2023-01-25T04:22:20.364Z,21.85
2023-01-25T04:24:49.962Z,32.95
2023-01-25T04:27:19.250Z,21.95
2023-01-25T04:29:50.960Z,32.13
2023-01-25T04:34:50.185Z,24.23
2023-01-25T04:37:20.059Z,24.30
2023-01-25T04:39:49.967Z,25.67
2023-01-25T04:42:19.676Z,22.73
2023-01-25T04:44:51.039Z,23.05
2023-01-25T04:47:20.317Z,22.58
2023-01-25T04:49:50.343Z,23.13
2023-01-25T04:54:50.977Z,30.13
2023-01-25T04:57:20.373Z,26.20
2023-01-25T04:59:51.675Z,29.88
2023-01-25T05:02:21.134Z,26.70
2023-01-25T05:04:50.820Z,25.38
2023-01-25T05:07:20.241Z,29.13
2023-01-25T05:09:49.980Z,27.73
2023-01-25T05:12:19.262Z,24.75
2023-01-25T05:14:49.087Z,24.38
2023-01-25T05:17:19.816Z,33.00
2023-01-25T05:19:50.019Z,37.17
2023-01-25T05:22:21.258Z,29.17
2023-01-25T05:24:51.597Z,38.72
2023-01-25T05:27:21.505Z,32.10
2023-01-25T05:29:51.106Z,28.85
2023-01-25T05:32:24.451Z,31.85
2023-01-25T05:34:54.461Z,33.88
2023-01-25T05:37:24.077Z,41.30
2023-01-25T05:39:53.760Z,33.45
2023-01-25T05:42:23.204Z,39.67
2023-01-25T05:44:52.838Z,35.50
2023-01-25T05:47:23.579Z,49.45
2023-01-25T05:52:22.178Z,43.58
2023-01-25T05:54:51.849Z,39.63
2023-01-25T05:57:21.422Z,49.22
2023-01-25T05:59:51.232Z,49.78
2023-01-25T06:02:20.906Z,60.75
2023-01-25T06:04:52.314Z,50.80
2023-01-25T06:07:23.378Z,49.50
2023-01-25T06:09:54.478Z,47.20
2023-01-25T06:12:24.395Z,50.25
2023-01-25T06:14:54.322Z,56.40
2023-01-25T06:17:23.771Z,60.80
2023-01-25T06:19:54.849Z,58.97
2023-01-25T06:22:24.318Z,61.95
2023-01-25T06:24:54.189Z,51.22
2023-01-25T06:27:23.486Z,56.35
2023-01-25T06:29:53.614Z,54.22
2023-01-25T06:32:24.437Z,57.63
2023-01-25T06:34:55.607Z,69.43
2023-01-25T06:37:25.586Z,68.50
2023-01-25T06:39:55.280Z,71.50
2023-01-25T06:42:26.602Z,59.47
2023-01-25T06:44:56.271Z,57.80
2023-01-25T06:47:25.640Z,60.97
2023-01-25T06:49:56.760Z,65.05
2023-01-25T06:52:26.099Z,60.00
2023-01-25T06:54:55.900Z,69.53
2023-01-25T06:57:25.253Z,73.65
2023-01-25T06:59:54.883Z,58.50
2023-01-25T07:02:24.309Z,55.03
2023-01-25T07:04:53.984Z,52.95
2023-01-25T07:07:24.771Z,66.85
2023-01-25T07:09:54.398Z,49.75
2023-01-25T07:12:23.757Z,62.03
2023-01-25T07:14:53.595Z,60.60
2023-01-25T07:17:23.248Z,66.38
2023-01-25T07:19:52.888Z,61.15
2023-01-25T07:22:23.667Z,71.10
2023-01-25T07:24:54.179Z,64.50
2023-01-25T07:27:23.558Z,53.80
2023-01-25T07:29:53.220Z,58.22
2023-01-25T07:32:22.894Z,60.25
2023-01-25T07:34:52.570Z,60.33
2023-01-25T07:37:21.940Z,64.78
2023-01-25T07:39:53.147Z,57.22
2023-01-25T07:42:22.896Z,58.88
2023-01-25T07:44:52.886Z,62.90
2023-01-25T07:47:22.176Z,57.67
2023-01-25T07:49:51.809Z,57.58
2023-01-25T07:52:21.143Z,60.72
2023-01-25T07:54:52.265Z,58.60
2023-01-25T07:57:21.995Z,60.10
2023-01-25T07:59:51.610Z,56.00
2023-01-25T08:02:21.586Z,60.35
2023-01-25T08:04:51.555Z,62.50
2023-01-25T08:07:23.672Z,57.03
2023-01-25T08:09:54.881Z,45.10
2023-01-25T08:14:55.992Z,58.17
2023-01-25T08:17:25.465Z,58.47
2023-01-25T08:19:55.706Z,44.30
2023-01-25T08:22:25.571Z,48.97
2023-01-25T08:24:57.013Z,53.20
2023-01-25T08:27:26.507Z,64.28
2023-01-25T08:29:56.125Z,59.95
2023-01-25T08:32:25.615Z,59.58
2023-01-25T08:34:55.458Z,61.80
2023-01-25T08:37:25.977Z,64.53
2023-01-25T08:40:27.321Z,71.78
2023-01-25T08:42:58.144Z,58.45
2023-01-25T08:45:27.871Z,66.50
2023-01-25T08:47:57.571Z,66.60
2023-01-25T08:50:27.257Z,71.63
2023-01-25T08:52:56.539Z,67.65
2023-01-25T08:55:26.609Z,63.00
2023-01-25T08:57:57.728Z,66.60
2023-01-25T09:00:27.646Z,74.53
2023-01-25T09:02:56.926Z,76.35
2023-01-25T09:05:26.571Z,69.18
2023-01-25T09:07:56.042Z,69.65
2023-01-25T09:10:25.646Z,69.95
2023-01-25T09:12:55.186Z,72.63
2023-01-25T09:15:26.478Z,61.42
2023-01-25T09:17:56.966Z,57.80
2023-01-25T09:20:26.932Z,54.97
2023-01-25T09:22:57.583Z,73.10
2023-01-25T09:27:56.612Z,73.45
2023-01-25T09:30:40.809Z,64.70
2023-01-25T09:33:16.869Z,63.33
2023-01-25T09:35:50.459Z,69.53
2023-01-25T09:38:19.886Z,73.60
2023-01-25T09:41:00.856Z,59.88
2023-01-25T09:43:44.951Z,61.42
2023-01-25T09:46:24.222Z,74.93
2023-01-25T09:49:07.754Z,69.35
2023-01-25T09:51:53.210Z,70.45
2023-01-25T09:54:23.811Z,71.75
2023-01-25T09:56:54.492Z,69.30
2023-01-25T09:59:27.843Z,61.67
2023-01-25T10:02:03.457Z,69.40
2023-01-25T10:04:38.805Z,59.90
2023-01-25T10:07:20.482Z,55.70
2023-01-25T10:09:55.563Z,70.97
2023-01-25T10:12:27.280Z,62.78
2023-01-25T10:14:56.913Z,67.60
2023-01-25T10:17:33.617Z,70.93
2023-01-25T10:20:17.287Z,68.60
2023-01-25T10:22:52.123Z,62.33
2023-01-25T10:25:26.406Z,68.97
2023-01-25T10:28:14.619Z,66.88
2023-01-25T10:30:52.895Z,72.20
2023-01-25T10:33:24.057Z,67.97
2023-01-25T10:35:53.585Z,57.13
2023-01-25T10:38:28.938Z,58.55
2023-01-25T10:41:03.805Z,64.63
2023-01-25T10:43:33.423Z,65.35
2023-01-25T10:46:04.074Z,63.70
2023-01-25T10:48:38.135Z,65.75
2023-01-25T10:51:07.714Z,68.10
2023-01-25T10:53:40.223Z,71.75
2023-01-25T10:56:26.027Z,53.03
2023-01-25T10:59:09.255Z,61.53
2023-01-25T11:01:39.575Z,59.50
2023-01-25T11:04:30.141Z,52.35
2023-01-25T11:07:00.117Z,52.43
2023-01-25T11:09:38.572Z,42.50
2023-01-25T11:12:20.120Z,49.00
2023-01-25T11:14:53.869Z,47.50
2023-01-25T11:17:30.625Z,43.10
2023-01-25T11:20:17.938Z,49.20
2023-01-25T11:22:55.564Z,46.80
2023-01-25T11:25:31.258Z,40.95
2023-01-25T11:28:14.114Z,40.15
2023-01-25T11:30:43.976Z,47.15
2023-01-25T11:33:14.671Z,44.95
2023-01-25T11:38:25.711Z,53.87
2023-01-25T11:41:02.566Z,46.88
2023-01-25T11:44:00.704Z,44.72
2023-01-25T11:46:47.928Z,38.97
2023-01-25T11:49:29.153Z,42.33
2023-01-25T11:52:13.195Z,43.53
2023-01-25T11:54:51.757Z,43.03
2023-01-25T11:57:36.475Z,47.83
2023-01-25T12:00:23.624Z,46.65
2023-01-25T12:03:34.759Z,44.60
2023-01-25T12:06:10.697Z,38.70
2023-01-25T12:09:03.831Z,39.75
2023-01-25T12:11:45.819Z,40.28
2023-01-25T12:14:31.082Z,41.15
2023-01-25T12:17:17.394Z,37.45
2023-01-25T12:20:03.651Z,36.97
2023-01-25T12:22:47.706Z,32.63
2023-01-25T12:25:26.940Z,35.55
2023-01-25T12:28:09.488Z,33.85
2023-01-25T12:30:51.439Z,36.53
2023-01-25T12:33:25.536Z,39.90
2023-01-25T12:36:01.356Z,39.15
2023-01-25T12:38:38.431Z,46.08
2023-01-25T12:41:20.736Z,43.30
2023-01-25T12:43:56.205Z,41.42
2023-01-25T12:46:30.411Z,41.90
2023-01-25T12:49:04.839Z,39.47
2023-01-25T12:51:43.184Z,41.22
2023-01-25T12:54:19.392Z,45.50
2023-01-25T12:57:00.924Z,37.30
2023-01-25T12:59:39.810Z,40.38
2023-01-25T13:02:24.646Z,49.88
2023-01-25T13:05:03.099Z,43.88
2023-01-25T13:07:41.124Z,51.15
2023-01-25T13:10:20.517Z,48.08
2023-01-25T13:12:57.567Z,46.15
2023-01-25T13:15:44.156Z,53.65
2023-01-25T13:18:42.534Z,46.63
2023-01-25T13:21:33.683Z,47.45
2023-01-25T13:24:22.503Z,53.20
2023-01-25T13:27:04.181Z,47.75
2023-01-25T13:30:24.232Z,45.72
2023-01-25T13:32:58.550Z,49.20
2023-01-25T13:35:31.069Z,54.47
2023-01-25T13:38:26.384Z,45.47
2023-01-25T13:41:12.460Z,51.25
2023-01-25T13:43:42.931Z,50.28
2023-01-25T13:46:16.336Z,54.17
2023-01-25T13:49:00.419Z,51.90
2023-01-25T13:51:33.017Z,59.92
2023-01-25T13:54:02.641Z,54.88
2023-01-25T13:56:39.942Z,51.13
2023-01-25T13:59:25.003Z,58.35
2023-01-25T14:01:55.056Z,51.63
2023-01-25T14:04:24.580Z,48.88
2023-01-25T14:06:59.630Z,49.70
2023-01-25T14:09:29.373Z,55.47
2023-01-25T14:12:02.958Z,59.60
2023-01-25T14:14:34.519Z,59.08
2023-01-25T14:17:21.189Z,53.95
2023-01-25T14:19:51.895Z,63.20
2023-01-25T14:27:44.894Z,58.17
2023-01-25T14:30:23.202Z,63.47
2023-01-25T14:32:55.017Z,54.42
2023-01-25T14:36:11.600Z,59.15
2023-01-25T14:38:37.508Z,57.72
2023-01-25T14:41:14.246Z,58.05
2023-01-25T14:43:48.423Z,58.00
2023-01-25T14:46:22.230Z,54.40
2023-01-25T14:48:53.020Z,53.53
2023-01-25T14:51:29.123Z,55.72
2023-01-25T14:54:03.082Z,51.53
2023-01-25T14:56:38.302Z,51.35
2023-01-25T14:59:21.732Z,52.83
2023-01-25T15:01:54.520Z,50.08
2023-01-25T15:04:25.083Z,48.58
2023-01-25T15:06:58.908Z,56.17
2023-01-25T15:09:42.549Z,51.63
2023-01-25T15:12:33.125Z,50.08
2023-01-25T15:15:04.373Z,51.40
2023-01-25T15:17:45.708Z,53.63
2023-01-25T15:20:36.805Z,49.83
2023-01-25T15:23:23.599Z,46.42
2023-01-25T15:25:55.264Z,47.03
2023-01-25T15:28:26.159Z,45.35
2023-01-25T15:30:59.769Z,49.47
2023-01-25T15:33:32.617Z,50.25
2023-01-25T15:36:02.355Z,44.15
2023-01-25T15:38:31.670Z,41.45
2023-01-25T15:41:01.817Z,46.83
2023-01-25T15:43:31.283Z,43.67
2023-01-25T15:46:02.962Z,46.25
2023-01-25T15:48:35.041Z,42.30
2023-01-25T15:51:05.161Z,49.42
2023-01-25T15:53:34.585Z,50.58
2023-01-25T15:56:20.911Z,45.35
2023-01-25T15:58:53.138Z,45.15
2023-01-25T16:01:27.559Z,39.30
2023-01-25T16:03:57.345Z,37.75
2023-01-25T16:06:38.868Z,42.60
2023-01-25T16:09:20.018Z,37.58
2023-01-25T16:11:52.333Z,45.22
2023-01-25T16:14:23.864Z,38.75
2023-01-25T16:16:55.600Z,43.03
2023-01-25T16:19:27.635Z,40.75
2023-01-25T16:21:57.464Z,42.95
2023-01-25T16:24:26.868Z,37.55
2023-01-25T16:26:58.524Z,39.53
2023-01-25T16:29:28.472Z,48.17
2023-01-25T16:32:00.063Z,39.33
2023-01-25T16:37:00.126Z,35.08
2023-01-25T16:39:29.715Z,58.38
2023-01-25T16:41:59.879Z,47.75
2023-01-25T16:44:29.211Z,40.45
2023-01-25T16:47:00.450Z,38.15
2023-01-25T16:49:30.826Z,40.78
2023-01-25T16:52:00.852Z,42.80
2023-01-25T16:54:30.568Z,35.22
2023-01-25T16:57:05.819Z,44.40
2023-01-25T16:59:38.254Z,51.88
2023-01-25T17:02:13.032Z,45.97
2023-01-25T17:04:42.466Z,43.30
2023-01-25T17:07:12.761Z,47.92
2023-01-25T17:09:42.391Z,55.40
2023-01-25T17:12:14.312Z,55.10
2023-01-25T17:14:43.693Z,56.45
2023-01-25T17:17:15.109Z,56.38
2023-01-25T17:19:44.719Z,58.03
2023-01-25T17:22:14.435Z,56.15
2023-01-25T17:24:43.785Z,51.80
2023-01-25T17:27:25.501Z,54.65
2023-01-25T17:29:54.901Z,50.85
2023-01-25T17:32:26.295Z,52.97
2023-01-25T17:34:59.257Z,55.67
2023-01-25T17:37:29.060Z,59.40
2023-01-25T17:39:59.099Z,53.78
2023-01-25T17:42:28.886Z,61.85
2023-01-25T17:44:58.394Z,71.05
2023-01-25T17:47:31.847Z,59.20
2023-01-25T17:50:01.112Z,56.90
2023-01-25T17:52:31.010Z,59.83
2023-01-25T17:55:00.720Z,53.10
2023-01-25T17:57:32.767Z,58.03
2023-01-25T18:00:02.066Z,66.40
2023-01-25T18:02:33.786Z,62.67
2023-01-25T18:05:03.251Z,56.22
2023-01-25T18:07:32.935Z,54.65
2023-01-25T18:10:02.232Z,50.72
2023-01-25T18:12:32.329Z,53.72
2023-01-25T18:15:03.177Z,48.45
2023-01-25T18:17:38.446Z,57.60
2023-01-25T18:20:10.903Z,56.15
2023-01-25T18:22:41.947Z,54.92
2023-01-25T18:25:31.887Z,56.13
2023-01-25T18:28:01.708Z,49.40
2023-01-25T18:30:40.339Z,57.42
2023-01-25T18:33:11.896Z,54.35
2023-01-25T18:35:43.521Z,53.53
2023-01-25T18:38:14.573Z,50.70
2023-01-25T18:40:44.749Z,50.40
2023-01-25T18:43:16.828Z,54.10
2023-01-25T18:45:48.502Z,53.92
2023-01-25T18:48:21.536Z,46.97
2023-01-25T18:50:52.621Z,50.75
2023-01-25T18:53:22.367Z,52.90
2023-01-25T18:56:01.426Z,48.17
2023-01-25T18:58:33.387Z,54.38
2023-01-25T19:01:05.602Z,56.97
2023-01-25T19:03:37.194Z,51.80
2023-01-25T19:06:06.963Z,46.40
2023-01-25T19:08:41.469Z,46.45
2023-01-25T19:11:14.726Z,43.10
2023-01-25T19:13:46.833Z,41.42
2023-01-25T19:16:19.976Z,45.40
2023-01-25T19:19:02.753Z,54.50
2023-01-25T19:21:34.888Z,46.38
2023-01-25T19:24:05.433Z,48.03
2023-01-25T19:26:34.942Z,50.67
2023-01-25T19:29:04.820Z,46.30
2023-01-25T19:31:36.983Z,43.90
2023-01-25T19:34:09.588Z,39.70
2023-01-25T19:36:45.918Z,42.80
2023-01-25T19:39:15.952Z,46.38
2023-01-25T19:41:45.239Z,42.03
2023-01-25T19:44:16.600Z,41.30
2023-01-25T19:46:46.299Z,42.05
2023-01-25T19:49:22.570Z,44.78
2023-01-25T19:51:54.428Z,45.22
2023-01-25T19:54:25.099Z,48.45
2023-01-25T19:56:54.602Z,44.55
2023-01-25T19:59:27.869Z,42.90
2023-01-25T20:01:58.924Z,42.30
2023-01-25T20:04:30.652Z,47.30
2023-01-25T20:07:00.051Z,48.33
2023-01-25T20:09:30.437Z,44.75
2023-01-25T20:12:01.549Z,45.78
2023-01-25T20:14:32.364Z,40.08
2023-01-25T20:17:04.048Z,34.22
2023-01-25T20:19:37.383Z,39.63
2023-01-25T20:22:07.233Z,43.45
2023-01-25T20:24:37.478Z,49.17
2023-01-25T20:27:07.687Z,40.45
2023-01-25T20:29:38.314Z,43.60
2023-01-25T20:32:09.657Z,41.75
2023-01-25T20:34:42.210Z,47.03
2023-01-25T20:37:12.987Z,46.67
2023-01-25T20:42:12.694Z,42.80
2023-01-25T20:44:42.670Z,38.35
2023-01-25T20:47:12.159Z,46.47
2023-01-25T20:49:46.659Z,40.58
2023-01-25T20:52:16.170Z,41.60
2023-01-25T20:54:47.518Z,40.22
2023-01-25T20:59:47.820Z,37.50
2023-01-25T21:02:17.983Z,37.97
2023-01-25T21:04:50.254Z,38.15
2023-01-25T21:09:48.961Z,37.13
2023-01-25T21:12:18.648Z,39.03
2023-01-25T21:14:49.033Z,37.10
2023-01-25T21:17:18.557Z,38.88
2023-01-25T21:19:51.807Z,40.45
2023-01-25T21:22:22.483Z,38.60
2023-01-25T21:24:52.958Z,39.83
2023-01-25T21:27:23.199Z,37.53
2023-01-25T21:29:52.985Z,36.40
2023-01-25T21:32:23.611Z,32.50
2023-01-25T21:37:23.980Z,37.38
2023-01-25T21:39:54.717Z,28.90
2023-01-25T21:42:24.351Z,32.05
2023-01-25T21:45:13.670Z,31.90
2023-01-25T21:47:43.116Z,33.25
2023-01-25T21:50:32.558Z,33.10
2023-01-25T21:53:02.093Z,36.08
2023-01-25T21:55:31.739Z,32.83
2023-01-25T21:58:01.018Z,34.88
2023-01-25T22:00:31.195Z,34.05
2023-01-25T22:03:00.812Z,30.15
2023-01-25T22:05:31.958Z,35.05
2023-01-25T22:08:01.258Z,29.58
2023-01-25T22:10:31.595Z,34.08
2023-01-25T22:13:01.028Z,35.88
2023-01-25T22:15:31.252Z,32.50
2023-01-25T22:18:00.570Z,34.70
2023-01-25T22:20:31.729Z,37.05
2023-01-25T22:23:01.149Z,35.42
2023-01-25T22:25:31.182Z,39.07
2023-01-25T22:28:02.124Z,37.90
2023-01-25T22:30:31.803Z,36.88
2023-01-25T22:33:01.305Z,41.13
2023-01-25T22:35:32.847Z,37.22
2023-01-25T22:38:02.253Z,34.60
2023-01-25T22:40:31.883Z,33.10
2023-01-25T22:43:01.137Z,38.05
2023-01-25T22:45:30.760Z,35.08
2023-01-25T22:48:00.135Z,36.75
2023-01-25T22:50:29.810Z,36.35
2023-01-25T22:53:00.566Z,36.95
2023-01-25T22:55:32.016Z,39.40
2023-01-25T23:00:30.609Z,36.97
2023-01-25T23:03:00.213Z,36.20
2023-01-25T23:05:30.114Z,38.22
2023-01-25T23:08:00.985Z,39.22
2023-01-25T23:10:31.233Z,34.53
2023-01-25T23:13:00.542Z,39.83
2023-01-25T23:15:30.162Z,39.92
2023-01-25T23:18:17.086Z,35.92
2023-01-25T23:20:46.722Z,37.22
2023-01-25T23:23:17.529Z,35.10
2023-01-25T23:28:17.378Z,36.03
2023-01-25T23:30:47.356Z,36.75
2023-01-25T23:33:16.882Z,40.67
2023-01-25T23:35:46.668Z,39.50
2023-01-25T23:38:17.443Z,31.23
2023-01-25T23:40:47.363Z,33.80
2023-01-25T23:43:16.648Z,38.33
2023-01-25T23:45:46.509Z,36.13
2023-01-25T23:48:15.835Z,35.13
2023-01-25T23:50:45.465Z,36.70
2023-01-25T23:53:14.739Z,35.72
2023-01-25T23:55:53.681Z,34.80
2023-01-25T23:58:23.256Z,30.15
